Terminal Aerodrome Forecast
Issued by NWS

Home | Current Version | Previous Version | Text Only | Print | Product List | Glossary On
Versions: 1 2 3 4 5 6 7 8 9 10 11 12
000
FTUS45 KABQ 201700
TAFFMN
TAF
KFMN 201729Z 2018/2118 30015KT P6SM SKC
     FM202000 30015G25KT P6SM SKC
     FM210100 36005KT P6SM SKC=

USA.gov is the U.S. government's official web portal to all federal, state and local government web resources and services.